Airfield :
LOGIN :

Register | Disclaimer

   EN    FR    IT 

 










Legend :    VFR   Marginal VFR   IFR   Intensive IFR   Very Intensive IFR
Visi :
Ceiling :
>= 8 km
>= 3000ft
5 to 8 km
1000 to 3000 ft
1500m to 5 km
500 to 1000 ft
800 to 1500m
200 to 500 ft
< 800m
< 200 ft
Symbols :   Thunderstorms  Fog  Heavy snow  Heavy precipitations  Wind > 20 kt
SIGMETs :     Misc.  Thunderstorms  Icing  Turbulence  Mountain Waves  Volcanic Ashes







- Airport Elevation : 13 ft
- IATA code : OST


EBOS - Oostend bruges Int.

CURRENT METAR :
  • 190820Z 02010KT 5000 -RA BR FEW006 BKN044 11/09 Q1009 BECMG 6000

EXPIRED METARs :
  • 190750Z 36009KT 5000 -RA BR FEW006 SCT030 12/10 Q1008 BECMG 6000
  • 190720Z 01009KT 4500 -RA BR FEW009 SCT030 11/09 Q1008 BECMG 6000
  • 190650Z 01008KT 4200 -RA BR FEW009 SCT040 12/10 Q1008 TEMPO 6000
  • 190620Z 01006KT 4600 -RA BR FEW040 SCT046 12/10 Q1008 TEMPO 6000 NSW
  • 190550Z 36006KT 3500 RA BR SCT040 BKN047 12/10 Q1008 TEMPO 6000 NSW

TAF TAF EBOS
Valid from the 19 at 06:00 until the 20 at 12:00 UTC


190510Z 1906/2012 03010KT 6000 FEW035 SCT045
TEMPO 1906/1907 4000 BR
PROB30
TEMPO 1910/1915 4000 SHRA BKN008 SCT030TCU
BECMG 1917/1919 2500 BR BKN005
PROB40 1921/2010 0600 FG BKN002
BECMG 2000/2002 33014KT
No reported NOTAMs for that airfield.



MET'MAP, your aeronautical weather chart ! - Copyright ORBIFLY December 2007 - Disclaimer

ORBIFLY MET'MAP TEAM :

Programming & Development : Alexandra Zaïnal
Concept & Development : Baudouin d'Aumeries
Co-Development & Prog : Marc-Olivier Méhu
Technical & hardware support : Manuel Goepfert

Contact : metmap@orbifly.com




SOURCES & CREDITS :

   NOAA